Tiempo atmosférico en la estación meteorológica de Montanejos, Castelló/Castellón (601 m.)



Fecha
DESCASC
Temp. máxima en grados centígrados (hora)
DESCASC
Temp. mínima en grados centígrados (hora)
DESCASC
Temp. media en grados centígrados
DESCASC
Racha de viento máxima en m/sg (hora)
DESCASC
Velocidad máxima media en intervalos de 10 minutos(hora)
DESCASC
Precipitaciones diarias en mm
DESCASC
Precipitaciones de 00:00 a 06:00 en mm
DESCASC
Precipitaciones de 06:00 a 12:00 en mm
DESCASC
Precipitaciones de 12:00 a 18:00 en mm
DESCASC
Precipitaciones de 18:00 a 24:00 en mm
DESCASC
31-03-2020 11.2 (17:40) 2.2 (04:00) 6.7 5.83 (18:00) 3.61 (18:00) 35.2 9.6 15.6 7.2 2.8
30-03-2020 9.1 (02:50) 2.9 (23:59) 6 6.11 (05:50) 3.89 (11:30) 10 0 0.2 4 5.8
29-03-2020 19.4 (15:50) 3.4 (00:00) 11.4 8.89 (15:10) 5.28 (16:50) 0 0 0 0 0
28-03-2020 13.4 (17:10) 1.6 (00:00) 7.5 6.67 (13:00) 3.89 (13:00) 0 0 0 0 0
27-03-2020 9.7 (16:00) 2.2 (00:00) 5.9 8.61 (13:10) 4.44 (16:30) 0 0 0 0 0
26-03-2020 10.3 (18:10) 2.1 (00:00) 6.2 20 (15:10) 10 (15:20) 0.2 0 0 0.2 0
25-03-2020 6.4 (00:00) 3.5 (00:00) 5 6.11 (02:20) 3.61 (02:30) 3.4 0.8 1.4 1.2 0
24-03-2020 9.3 (02:40) 6.4 (00:00) 7.9 8.89 (05:10) 4.17 (19:20) 1.4 0 0.8 0.2 0.4
23-03-2020 10.9 (16:10) 8.2 (00:00) 9.5 5 (23:30) 2.78 (10:10) 28.6 1.6 11.4 14.6 1
22-03-2020 10.3 (15:20) 7.5 (08:30) 8.9 5.56 (16:00) 3.33 (16:00) 5 3.2 0.6 1 0.2
21-03-2020 11.5 (14:10) 4.8 (00:00) 8.2 6.67 (18:10) 3.89 (17:30) 0.2 0 0 0 0.2
20-03-2020 12.3 (13:30) 6.9 (00:00) 9.6 8.33 (13:30) 5 (13:40) 0 0 0 0 0
19-03-2020 14.8 (14:00) 4.7 (00:00) 9.8 8.33 (13:50) 5 (16:30) 0 0 0 0 0
18-03-2020 13.8 (17:00) 6.6 (00:00) 10.2 7.5 (14:10) 4.72 (16:20) 0.2 0 0 0.2 0
17-03-2020 12.3 (16:30) 8.2 (00:00) 10.3 9.44 (14:30) 3.89 (16:40) 53.2 16 31.4 5.8 0
16-03-2020 9.9 (00:00) 6.1 (00:00) 8 9.72 (15:50) 5 (16:20) 21 5.4 4.6 8.8 2.2
15-03-2020 17.6 (14:20) 6.6 (00:00) 12.1 8.61 (15:30) 4.72 (15:40) 0.2 0 0 0 0.2
14-03-2020 18.9 (14:10) 7.2 (00:00) 13 8.89 (13:30) 5 (16:40) 0 0 0 0 0
13-03-2020 17.3 (14:40) 7.7 (07:40) 12.5 10.28 (13:10) 5.28 (15:50) 0 0 0 0 0
12-03-2020 26.4 (14:00) 9.3 (00:00) 17.8 6.67 (13:30) 4.17 (13:10) 0 0 0 0 0
11-03-2020 25.2 (12:40) 9.7 (00:00) 17.5 9.72 (13:20) 6.11 (13:30) 0 0 0 0 0
10-03-2020 21.6 (16:10) 9.4 (00:00) 15.5 14.17 (00:40) 11.11 (00:40) 0 0 0 0 0
09-03-2020 16.2 (15:30) 10.6 (00:00) 13.4 15 (16:40) 9.72 (16:30) 0 0 0 0 0
08-03-2020 20.9 (16:10) 5.9 (00:00) 13.4 10 (14:30) 6.11 (15:00) 0 0 0 0 0
07-03-2020 15.2 (16:20) 6.4 (00:00) 10.8 20.56 (12:50) 10.83 (15:30) 0 0 0 0 0
06-03-2020 11.7 (00:00) 6.8 (00:00) 9.3 21.11 (12:40) 13.61 (11:50) 0.2 0 0 0.2 0
05-03-2020 17.9 (14:40) 9.9 (00:00) 13.9 21.11 (17:20) 11.11 (17:10) 0 0 0 0 0
04-03-2020 20.4 (15:20) 12 (00:00) 16.2 15.28 (00:30) 8.33 (01:00) 0 0 0 0 0

Gráficas

Temp. máximas Temp. mínimas Temp. medias Precipitaciones Rachas de viento máximas Velocidades máximas media en intervalos de 10 minutos

Datos horarios

Fecha y hora oficial Temperatura (ºC) Velocidad del viento (km/h) Dirección del viento Racha (km/h) Dirección de racha Precipitación (mm) Presión (hPa) Tendencia (hPa) Humedad (%)
2020-04-02 23:00:00 8.1 0 Calma 4 Nordeste 0.6 -- -- 98
2020-04-02 22:00:00 8 0 Calma 8 Sur 1.8 -- -- 97
2020-04-02 21:00:00 8.4 3 Sur 9 Sur 2.4 -- -- 96
2020-04-02 20:00:00 9.2 3 Sur 7 Sur 0.2 -- -- 93
2020-04-02 19:00:00 8.9 0 Calma 13 Sur 0 -- -- 95
2020-04-02 18:00:00 8.3 7 Sur 26 Sur 0.6 -- -- 94
2020-04-02 17:00:00 9.9 9 Sur 19 Sur 1.8 -- -- 92
2020-04-02 16:00:00 12.8 11 Sur 20 Sudoeste 0.2 -- -- 76
2020-04-02 15:00:00 10.8 2 Sudoeste 21 Norte 1 -- -- 81
2020-04-02 14:00:00 13 6 Sur 12 Sur 0 -- -- 66
2020-04-02 13:00:00 11.5 3 Noroeste 9 Oeste 0 -- -- 79
2020-04-02 12:00:00 9.6 3 Oeste 6 Norte 0 -- -- 86
2020-04-02 11:00:00 8.4 0 Calma 5 Norte 0 -- -- 94
2020-04-02 10:00:00 6.8 0 Calma 5 Oeste 0 -- -- 98
2020-04-02 09:00:00 6.3 0 Calma 7 Sur 0 -- -- 99
2020-04-02 08:00:00 6.1 3 Sudoeste 6 Sudoeste 0 -- -- 99
2020-04-02 07:00:00 6.3 3 Sudeste 5 Este 0 -- -- 99
2020-04-02 06:00:00 6.1 0 Calma 5 Sudoeste 0 -- -- 99
2020-04-02 05:00:00 6 2 Sudoeste 7 Sudoeste 0 -- -- 98
2020-04-02 04:00:00 6.4 3 Sudeste 6 Sudeste 0 -- -- 98
2020-04-02 03:00:00 6.8 0 Calma 4 Oeste 0 -- -- 97
2020-04-02 02:00:00 7.3 0 Calma 8 Noroeste 0.6 -- -- 97
2020-04-02 01:00:00 7.3 0 Calma 6 Sur 1.2 -- -- 97
2020-04-02 00:00:00 7.3 4 Sur 15 Noroeste 4.8 -- -- 95
2020-04-01 23:00:00 7.8 3 Sur 25 Noroeste 3 -- -- 90
2020-04-01 22:00:00 10.2 6 Sur 16 Sudoeste 0 -- -- 90
2020-04-01 21:00:00 10.8 6 Sur 10 Sur 0 -- -- 90
2020-04-01 20:00:00 11.3 0 Calma 13 Sur 0 -- -- 89
2020-04-01 19:00:00 12.3 9 Sur 16 Sur 0 -- -- 85
2020-04-01 18:00:00 12.5 11 Sur 25 Sur 0.2 -- -- 82
2020-04-01 17:00:00 13.3 10 Sur 19 Sur 1.4 -- -- 75
2020-04-01 16:00:00 14 6 Sur 18 Sur 0.2 -- -- 65
2020-04-01 15:00:00 15.2 8 Sur 18 Sur 0 -- -- 62
2020-04-01 14:00:00 14.5 4 Noroeste 9 Sudoeste 0 -- -- 63
2020-04-01 13:00:00 13.1 2 Oeste 8 Sudoeste 0 -- -- 69
2020-04-01 12:00:00 12.2 4 Noroeste 9 Noroeste 0 -- -- 79
2020-04-01 11:00:00 10.3 8 Noroeste 14 Norte 0 -- -- 88
2020-04-01 10:00:00 8.7 4 Noroeste 10 Noroeste 0.6 -- -- 95
2020-04-01 09:00:00 8.4 4 Oeste 9 Oeste 0.2 -- -- 97
2020-04-01 08:00:00 8.3 4 Noroeste 7 Norte 0 -- -- 99
2020-04-01 07:00:00 8.2 0 Calma 6 Nordeste 0 -- -- 98
2020-04-01 06:00:00 8.2 2 Nordeste 8 Sudeste 0.2 -- -- 98
2020-04-01 05:00:00 8.3 5 Sudeste 12 Sur 2.6 -- -- 98
2020-04-01 04:00:00 8.5 5 Sudeste 13 Sur 2.6 -- -- 99
2020-04-01 03:00:00 8.5 0 Calma 6 Sudeste 1.8 -- -- 99
2020-04-01 02:00:00 8.5 0 Calma 15 Sur 1.8 -- -- 98
2020-04-01 01:00:00 8.4 6 Sur 11 Sur 1.4 -- -- 98
2020-04-01 00:00:00 8.1 0 Calma 2 Sudoeste 0.6 -- -- 98
2020-03-31 23:00:00 8.2 0 Calma 5 Norte 1.2 -- -- 98
2020-03-31 22:00:00 8.4 0 Calma 4 Norte 0.4 -- -- 97
2020-03-31 21:00:00 8.4 3 Sudeste 10 Sudeste 0.2 -- -- 96
2020-03-31 20:00:00 8.7 4 Sudeste 12 Sur 0.2 -- -- 94
2020-03-31 19:00:00 9.1 7 Sur 20 Sudeste 0.2 -- -- 92
2020-03-31 18:00:00 10.8 13 Sur 21 Sur 0 -- -- 84
2020-03-31 17:00:00 10.3 0 Calma 4 Oeste 0.2 -- -- 94
2020-03-31 16:00:00 8.7 0 Calma 5 Norte 0.4 -- -- 99
2020-03-31 15:00:00 7.6 0 Calma 6 Norte 1.4 -- -- 99
2020-03-31 14:00:00 6.5 0 Calma 4 Noroeste 3.4 -- -- 99
2020-03-31 13:00:00 5.6 2 Noroeste 4 Noroeste 1.8 -- -- 98
2020-03-31 12:00:00 4.6 0 Calma 5 Noroeste 2.6 -- -- 98
2020-03-31 11:00:00 4.1 2 Noroeste 8 Noroeste 3 -- -- 98
2020-03-31 10:00:00 3.6 3 Noroeste 10 Noroeste 3.6 -- -- 97
2020-03-31 09:00:00 3.4 4 Norte 9 Norte 2.8 -- -- 97
2020-03-31 08:00:00 3 5 Norte 13 Noroeste 2.6 -- -- 98
2020-03-31 07:00:00 2.7 5 Noroeste 13 Noroeste 1 -- -- 98
2020-03-31 06:00:00 2.6 5 Noroeste 9 Noroeste 1.6 -- -- 98
2020-03-31 05:00:00 2.3 5 Noroeste 9 Noroeste 1.4 -- -- 97
2020-03-31 04:00:00 2.2 6 Noroeste 13 Noroeste 1.6 -- -- 96
2020-03-31 03:00:00 2.7 6 Noroeste 11 Noroeste 2.6 -- -- 96
2020-03-31 02:00:00 3 4 Noroeste 8 Noroeste 1.4 -- -- 96
2020-03-31 01:00:00 2.9 4 Noroeste 10 Norte 1 -- -- 95
2020-03-31 00:00:00 2.9 5 Noroeste 9 Noroeste 1.2 -- -- 94
2020-03-30 23:00:00 3.4 4 Oeste 8 Oeste 1.2 -- -- 93
2020-03-30 22:00:00 3.7 4 Noroeste 9 Noroeste 1.4 -- -- 91
2020-03-30 21:00:00 4 5 Noroeste 13 Noroeste 1.2 -- -- 91
2020-03-30 20:00:00 4.8 6 Noroeste 12 Noroeste 0.4 -- -- 89
2020-03-30 19:00:00 5.4 0 Calma 3 Sur 0.4 -- -- 91
2020-03-30 18:00:00 5.5 0 Calma 9 Noroeste 0.2 -- -- 87
2020-03-30 17:00:00 5.3 5 Norte 17 Noroeste 0 -- -- 82
2020-03-30 16:00:00 5.3 9 Noroeste 18 Noroeste 0 -- -- 84
2020-03-30 15:00:00 5.8 6 Noroeste 14 Norte 0.2 -- -- 83
2020-03-30 14:00:00 5.5 10 Noroeste 17 Noroeste 0.6 -- -- 83
2020-03-30 13:00:00 5.7 9 Noroeste 18 Oeste 3 -- -- 88
2020-03-30 12:00:00 7.7 9 Noroeste 21 Noroeste 0.2 -- -- 82
2020-03-30 11:00:00 8.8 10 Noroeste 18 Noroeste 0 -- -- 69
2020-03-30 10:00:00 8.5 3 Norte 18 Noroeste 0 -- -- 67
2020-03-30 09:00:00 8.3 9 Noroeste 19 Norte 0 -- -- 67
2020-03-30 08:00:00 8.4 11 Noroeste 21 Oeste 0 -- -- 65
2020-03-30 07:00:00 8.7 10 Noroeste 19 Noroeste 0 -- -- 64
2020-03-30 06:00:00 8.9 9 Noroeste 22 Norte 0 -- -- 63
2020-03-30 05:00:00 8.9 9 Noroeste 16 Noroeste 0 -- -- 64
2020-03-30 04:00:00 8.9 10 Noroeste 14 Noroeste 0 -- -- 66
2020-03-30 03:00:00 9 9 Noroeste 16 Noroeste 0 -- -- 65
2020-03-30 02:00:00 8.7 6 Norte 11 Norte 0 -- -- 71
2020-03-30 01:00:00 8.3 2 Norte 7 Noroeste 0 -- -- 79
2020-03-30 00:00:00 8.8 0 Calma 5 Noroeste 0 -- -- 85
2020-03-29 23:00:00 9.7 3 Norte 6 Norte 0 -- -- 82
2020-03-29 22:00:00 11.3 2 Sudoeste 5 Sudeste 0 -- -- 75
2020-03-29 21:00:00 12.9 5 Sur 21 Sur 0 -- -- 68
2020-03-29 20:00:00 14.3 14 Sur 27 Sudoeste 0 -- -- 62
2020-03-29 19:00:00 17.3 13 Sur 25 Sur 0 -- -- 47
2020-03-29 18:00:00 17.6 12 Sur 23 Sur 0 -- -- 43
2020-03-29 17:00:00 18.3 18 Sur 31 Sur 0 -- -- 39
2020-03-29 16:00:00 19.1 8 Noroeste 32 Noroeste 0 -- -- 36
2020-03-29 15:00:00 18.6 14 Noroeste 27 Oeste 0 -- -- 35
2020-03-29 14:00:00 17.7 7 Oeste 21 Noroeste 0 -- -- 36
2020-03-29 13:00:00 17.2 3 Noroeste 12 Norte 0 -- -- 38
2020-03-29 12:00:00 15.2 0 Calma 5 Nordeste 0 -- -- 47
2020-03-29 11:00:00 10.6 3 Nordeste 5 Nordeste 0 -- -- 60
2020-03-29 10:00:00 6.3 0 Calma 17 Norte 0 -- -- 77
2020-03-29 09:00:00 3.9 9 Noroeste 15 Norte 0 -- -- 83
2020-03-29 08:00:00 3.5 9 Noroeste 13 Noroeste 0 -- -- 85
2020-03-29 07:00:00 3.5 8 Noroeste 14 Noroeste 0 -- -- 86
2020-03-29 06:00:00 3.6 6 Norte 15 Noroeste 0 -- -- 88
2020-03-29 05:00:00 3.7 8 Norte 15 Norte 0 -- -- 87
2020-03-29 03:00:00 4.6 7 Noroeste 12 Noroeste 0 -- -- 87
2020-03-29 01:00:00 5.1 6 Noroeste 11 Noroeste 0 -- -- 88
2020-03-29 00:00:00 5.3 3 Oeste 7 Noroeste 0 -- -- 89
2020-03-28 23:00:00 5.9 2 Norte 6 Oeste 0 -- -- 87
2020-03-28 22:00:00 6.7 2 Noroeste 5 Noroeste 0 -- -- 85
2020-03-28 21:00:00 7.6 3 Norte 8 Nordeste 0 -- -- 83
2020-03-28 20:00:00 9.2 2 Sur 15 Sur 0 -- -- 73
2020-03-28 19:00:00 10.9 9 Sur 22 Sur 0 -- -- 66
2020-03-28 18:00:00 13.3 5 Sudoeste 14 Sudoeste 0 -- -- 56
2020-03-28 17:00:00 13.1 6 Sur 14 Sur 0 -- -- 53
2020-03-28 16:00:00 12.3 9 Sur 17 Sudoeste 0 -- -- 55
2020-03-28 15:00:00 12.4 3 Sur 10 Sudoeste 0 -- -- 54
2020-03-28 14:00:00 12.8 3 Sur 22 Sur 0 -- -- 52
2020-03-28 13:00:00 12.4 14 Sur 24 Sur 0 -- -- 53
2020-03-28 12:00:00 10.3 10 Sur 16 Sur 0 -- -- 61
2020-03-28 11:00:00 6.4 3 Norte 9 Norte 0 -- -- 77
2020-03-28 10:00:00 5 5 Noroeste 9 Noroeste 0 -- -- 79
2020-03-28 09:00:00 4.3 5 Norte 15 Norte 0 -- -- 81
2020-03-28 08:00:00 3.4 8 Noroeste 15 Norte 0 -- -- 83
2020-03-28 07:00:00 2.8 8 Noroeste 13 Noroeste 0 -- -- 85
2020-03-28 06:00:00 2.2 6 Norte 13 Noroeste 0 -- -- 88
2020-03-28 05:00:00 1.8 6 Noroeste 13 Norte 0 -- -- 90
2020-03-28 04:00:00 1.7 6 Noroeste 13 Noroeste 0 -- -- 92
2020-03-28 03:00:00 1.7 5 Noroeste 13 Noroeste 0 -- -- 92
2020-03-28 02:00:00 2.1 7 Noroeste 12 Noroeste 0 -- -- 92
2020-03-28 01:00:00 2.6 6 Noroeste 13 Noroeste 0 -- -- 92
2020-03-28 00:00:00 3 3 Noroeste 10 Noroeste 0 -- -- 92
2020-03-27 23:00:00 3.6 0 Calma 6 Oeste 0 -- -- 90
2020-03-27 22:00:00 4.3 2 Noroeste 5 Noroeste 0 -- -- 88
2020-03-27 21:00:00 5 0 Calma 4 Sur 0 -- -- 85
2020-03-27 20:00:00 6.3 2 Sur 7 Sudeste 0 -- -- 78
2020-03-27 19:00:00 7.7 4 Sudoeste 17 Sur 0 -- -- 72
2020-03-27 18:00:00 8.9 8 Sur 22 Sudoeste 0 -- -- 66
2020-03-27 17:00:00 9.3 9 Sur 24 Sur 0 -- -- 61
2020-03-27 16:00:00 9.7 9 Sur 22 Sur 0 -- -- 64
2020-03-27 15:00:00 8.5 12 Sur 26 Sur 0 -- -- 67
2020-03-27 14:00:00 8.8 15 Sur 31 Sudoeste 0 -- -- 64
2020-03-27 13:00:00 8.3 7 Sur 26 Sur 0 -- -- 68
2020-03-27 12:00:00 7.4 12 Sur 23 Sur 0 -- -- 71
2020-03-27 11:00:00 6.7 13 Sur 20 Sur 0 -- -- 74
2020-03-27 10:00:00 5.1 0 Calma 6 Noroeste 0 -- -- 79
2020-03-27 09:00:00 4.1 3 Norte 13 Noroeste 0 -- -- 81
2020-03-27 08:00:00 3.6 8 Noroeste 12 Noroeste 0 -- -- 82
2020-03-27 07:00:00 3.5 5 Noroeste 15 Noroeste 0 -- -- 85
2020-03-27 06:00:00 3.3 5 Norte 12 Noroeste 0 -- -- 88
2020-03-27 05:00:00 2.5 0 Calma 5 Norte 0 -- -- 96
2020-03-27 04:00:00 2.3 0 Calma 4 Noroeste 0 -- -- 96
2020-03-27 03:00:00 2.6 2 Sudoeste 10 Noroeste 0 -- -- 94
2020-03-27 02:00:00 3 0 Calma 5 Este 0 -- -- 94
2020-03-27 01:00:00 4 6 Sudoeste 12 Sur 0 -- -- 92
2020-03-27 00:00:00 4.3 0 Calma 5 Norte 0 -- -- 91
2020-03-26 23:00:00 4.6 0 Calma 8 Sudoeste 0 -- -- 89
2020-03-26 22:00:00 5.1 3 Sur 6 Sur 0 -- -- 87
2020-03-26 21:00:00 5.5 3 Sudeste 21 Sur 0 -- -- 86
2020-03-26 20:00:00 5.8 12 Sur 28 Sur 0 -- -- 83
2020-03-26 19:00:00 9.4 5 Oeste 33 Noroeste 0 -- -- 44
2020-03-26 18:00:00 10.2 6 Noroeste 28 Noroeste 0 -- -- 43
2020-03-26 17:00:00 9.2 12 Noroeste 44 Noroeste 0 -- -- 55
2020-03-26 16:00:00 8.3 12 Noroeste 72 Norte 0 -- -- 57
2020-03-26 15:00:00 9.9 10 Noroeste 60 Noroeste 0.2 -- -- 53
2020-03-26 14:00:00 9.5 18 Noroeste 45 Noroeste 0 -- -- 52
2020-03-26 13:00:00 8.2 5 Noroeste 37 Noroeste 0 -- -- 59
2020-03-26 12:00:00 8.8 23 Noroeste 42 Noroeste 0 -- -- 56
2020-03-26 11:00:00 8.6 19 Noroeste 40 Noroeste 0 -- -- 62
2020-03-26 10:00:00 8.3 12 Noroeste 37 Noroeste 0 -- -- 59
2020-03-26 09:00:00 6.7 9 Norte 21 Noroeste 0 -- -- 68
2020-03-26 08:00:00 3.9 6 Norte 18 Norte 0 -- -- 85
2020-03-26 07:00:00 2.1 0 Calma 4 Oeste 0 -- -- 97
2020-03-26 06:00:00 2.4 0 Calma 6 Norte 0 -- -- 96
2020-03-26 05:00:00 3.1 3 Noroeste 12 Noroeste 0 -- -- 95
2020-03-26 04:00:00 2.8 3 Oeste 8 Noroeste 0 -- -- 98
2020-03-26 03:00:00 2.7 2 Noroeste 10 Noroeste 0 -- -- 98
2020-03-26 02:00:00 2.8 0 Calma 8 Noroeste 0 -- -- 97
2020-03-26 01:00:00 3 3 Oeste 9 Noroeste 0 -- -- 97
2020-03-26 00:00:00 3.5 2 Oeste 7 Noroeste 0 -- -- 97
2020-03-25 23:00:00 3.9 0 Calma 8 Noroeste 0 -- -- 96
2020-03-25 22:00:00 4.2 0 Calma 5 Este 0 -- -- 96
2020-03-25 21:00:00 5.1 3 Sudeste 4 Sudeste 0 -- -- 94
2020-03-25 20:00:00 5.7 3 Nordeste 10 Sur 0 -- -- 91
2020-03-25 19:00:00 5.8 4 Sur 10 Sudoeste 0 -- -- 88
2020-03-25 18:00:00 6 5 Sur 12 Sur 0 -- -- 88
2020-03-25 17:00:00 6 6 Sur 14 Sur 0 -- -- 88
2020-03-25 16:00:00 5.4 9 Sur 15 Sur 0 -- -- 90
2020-03-25 15:00:00 4.8 10 Sur 18 Sur 0.4 -- -- 93
2020-03-25 14:00:00 4.3 11 Sur 19 Sur 0.8 -- -- 95
2020-03-25 13:00:00 4.9 10 Sur 21 Sur 0 -- -- 95
2020-03-25 12:00:00 5.2 10 Sur 16 Sur 0 -- -- 94
2020-03-25 11:00:00 5.6 0 Calma 4 Norte 0.2 -- -- 92
2020-03-25 10:00:00 5.5 2 Norte 4 Norte 0.6 -- -- 95
2020-03-25 09:00:00 5.4 0 Calma 3 Sudoeste 0.2 -- -- 96
2020-03-25 08:00:00 5.1 0 Calma 4 Sur 0.2 -- -- 97
2020-03-25 07:00:00 5.1 3 Sur 8 Sudeste 0.2 -- -- 97
2020-03-25 06:00:00 5.3 3 Sur 5 Sudeste 0 -- -- 97
2020-03-25 05:00:00 5.2 4 Sur 14 Sur 0.2 -- -- 97
2020-03-25 04:00:00 5.5 0 Calma 4 Sudeste 0.2 -- -- 97
2020-03-25 03:00:00 5.5 2 Sudeste 22 Sur 0.4 -- -- 96
2020-03-25 02:00:00 6.2 0 Calma 6 Sudeste 0 -- -- 96
2020-03-25 01:00:00 6.1 6 Sur 13 Sur 0 -- -- 96
2020-03-25 00:00:00 6.4 0 Calma 4 Sudeste 0 -- -- 97
2020-03-24 23:00:00 6.6 0 Calma 5 Sur 0 -- -- 96
2020-03-24 22:00:00 6.7 4 Sur 12 Sur 0 -- -- 95
2020-03-24 21:00:00 6.8 2 Sur 11 Sudeste 0.2 -- -- 95
2020-03-24 20:00:00 7 7 Sur 26 Sur 0.2 -- -- 93
2020-03-24 19:00:00 8 8 Sur 17 Sur 0 -- -- 88
2020-03-24 18:00:00 8.3 10 Sur 18 Sur 0 -- -- 88
2020-03-24 17:00:00 8.2 7 Sur 20 Sur 0.2 -- -- 89
2020-03-24 16:00:00 8.4 8 Sur 21 Sur 0 -- -- 88
2020-03-24 15:00:00 8.8 6 Sur 23 Sur 0 -- -- 83
2020-03-24 14:00:00 8.9 5 Sudoeste 24 Sur 0 -- -- 84
2020-03-24 13:00:00 8.5 9 Sur 28 Sudeste 0 -- -- 85
2020-03-24 12:00:00 8.5 8 Sur 24 Sudeste 0 -- -- 87
2020-03-24 11:00:00 8.3 7 Sur 25 Sur 0 -- -- 88
2020-03-24 10:00:00 8 10 Sur 30 Sur 0.4 -- -- 92
2020-03-24 09:00:00 8.6 7 Sur 19 Sudoeste 0.2 -- -- 90
2020-03-24 08:00:00 8.7 6 Sudoeste 31 Sur 0.2 -- -- 89
2020-03-24 07:00:00 8.9 8 Sur 30 Sur 0 -- -- 89
2020-03-24 06:00:00 9.1 10 Sur 32 Sur 0 -- -- 89
2020-03-24 05:00:00 9.1 13 Sur 25 Sur 0 -- -- 92
2020-03-24 04:00:00 9.2 8 Sur 21 Sur 0 -- -- 90
2020-03-24 03:00:00 9.3 9 Sur 19 Sur 0 -- -- 89
2020-03-24 02:00:00 9.2 4 Sur 15 Sur 0 -- -- 90
2020-03-24 01:00:00 9.2 9 Sur 24 Sur 0 -- -- 91
2020-03-24 00:00:00 9.2 5 Sur 18 Sur 0 -- -- 94
2020-03-23 23:00:00 9.2 5 Sur 17 Sur 0.2 -- -- 96
2020-03-23 22:00:00 9.2 8 Sur 15 Sur 0.2 -- -- 97
2020-03-23 21:00:00 9 0 Calma 7 Sudeste 0 -- -- 97
2020-03-23 20:00:00 9 3 Sudeste 8 Sudeste 0 -- -- 97
2020-03-23 19:00:00 9 5 Sudeste 12 Sur 0.6 -- -- 95
2020-03-23 18:00:00 9.5 5 Sur 13 Sur 0.4 -- -- 94
2020-03-23 17:00:00 10.3 5 Sur 16 Sur 0.6 -- -- 92
2020-03-23 16:00:00 10.8 2 Sur 8 Sudoeste 0 -- -- 89
2020-03-23 15:00:00 9.7 3 Noroeste 8 Sur 2.4 -- -- 95
2020-03-23 14:00:00 8.9 2 Sudeste 7 Sur 6.6 -- -- 96
2020-03-23 13:00:00 9.2 2 Sur 11 Sur 4.6 -- -- 96
2020-03-23 12:00:00 9.5 6 Sur 10 Sur 2 -- -- 96
2020-03-23 11:00:00 9.2 4 Sur 14 Sur 1.8 -- -- 98
2020-03-23 10:00:00 8.9 7 Sur 13 Sur 1 -- -- 98
2020-03-23 09:00:00 8.5 9 Sur 15 Sur 1.2 -- -- 99
2020-03-23 08:00:00 8.3 2 Sur 7 Sur 2.4 -- -- 99
2020-03-23 07:00:00 8.2 0 Calma 7 Sur 3 -- -- 98
2020-03-23 06:00:00 8.3 0 Calma 3 Norte 0.6 -- -- 98
2020-03-23 05:00:00 8.2 2 Sudeste 5 Sudeste 0.6 -- -- 98
2020-03-23 04:00:00 8.2 2 Sudeste 5 Sudeste 0.2 -- -- 97
2020-03-23 03:00:00 8.3 0 Calma 5 Sudeste 0.2 -- -- 97
2020-03-23 02:00:00 8.4 2 Sudeste 5 Este 0 -- -- 96
2020-03-23 01:00:00 8.5 0 Calma 7 Sur 0 -- -- 96
2020-03-23 00:00:00 8.7 3 Sur 5 Sur 0.2 -- -- 96
2020-03-22 23:00:00 8.8 0 Calma 8 Sur 0 -- -- 95
2020-03-22 22:00:00 8.9 6 Sur 15 Sur 0 -- -- 94
2020-03-22 21:00:00 9.1 9 Sur 15 Sudoeste 0 -- -- 94
2020-03-22 20:00:00 9.2 6 Sur 11 Sur 0 -- -- 95
2020-03-22 19:00:00 9.6 4 Sur 17 Sur 0 -- -- 90
2020-03-22 18:00:00 9.9 6 Sur 14 Sur 0 -- -- 91
2020-03-22 17:00:00 9.6 4 Sur 18 Sur 0.4 -- -- 92
2020-03-22 16:00:00 9.6 12 Sur 20 Sur 0.6 -- -- 90
2020-03-22 15:00:00 10 8 Sur 15 Sur 0 -- -- 86
2020-03-22 14:00:00 9.5 5 Sur 17 Sur 0 -- -- 87
2020-03-22 13:00:00 9.5 6 Sur 11 Sur 0 -- -- 88
2020-03-22 12:00:00 8.9 0 Calma 7 Sur 0 -- -- 91
2020-03-22 11:00:00 8.7 2 Sudeste 6 Sudeste 0 -- -- 94
2020-03-22 10:00:00 8.4 0 Calma 8 Sur 0 -- -- 97
2020-03-22 09:00:00 7.6 6 Sur 12 Sur 0.4 -- -- 98
2020-03-22 08:00:00 7.6 5 Sur 8 Sur 0.2 -- -- 98
2020-03-22 07:00:00 7.6 2 Sudeste 5 Sudeste 0 -- -- 98
2020-03-22 06:00:00 7.8 0 Calma 2 Este 0 -- -- 98
2020-03-22 05:00:00 7.8 0 Calma 0 Calma 0.2 -- -- 98
2020-03-22 04:00:00 7.8 0 Calma 4 Sur 0.8 -- -- 98
2020-03-22 03:00:00 7.9 2 Sur 5 Sur 1.8 -- -- 97
2020-03-22 02:00:00 7.9 0 Calma 6 Sur 0.2 -- -- 97
2020-03-22 01:00:00 8.2 0 Calma 6 Norte 0.2 -- -- 98
2020-03-22 00:00:00 8.3 0 Calma 8 Sudoeste 0 -- -- 98
2020-03-21 23:00:00 8.3 5 Sur 9 Sudoeste 0.2 -- -- 97
2020-03-21 22:00:00 8.6 4 Sur 8 Sur 0 -- -- 95
2020-03-21 21:00:00 8.9 3 Sudoeste 11 Sur 0 -- -- 93
2020-03-21 20:00:00 9.3 4 Sur 12 Sudoeste 0 -- -- 88
2020-03-21 19:00:00 9.4 4 Sur 24 Sur 0 -- -- 88
2020-03-21 18:00:00 9.9 10 Sur 23 Sur 0 -- -- 84
2020-03-21 17:00:00 10.7 8 Sur 17 Sur 0 -- -- 80
2020-03-21 16:00:00 11.2 8 Sur 18 Sur 0 -- -- 75
2020-03-21 15:00:00 11.5 9 Sur 17 Sudoeste 0 -- -- 70
2020-03-21 14:00:00 11.4 8 Sur 13 Sur 0 -- -- 67
2020-03-21 13:00:00 10.3 6 Sur 16 Sur 0 -- -- 72
2020-03-21 12:00:00 9.5 9 Sur 16 Sur 0 -- -- 76
2020-03-21 11:00:00 7.9 2 Oeste 4 Norte 0 -- -- 83
2020-03-21 10:00:00 6.5 0 Calma 10 Norte 0 -- -- 87
2020-03-21 09:00:00 5.4 4 Noroeste 14 Norte 0 -- -- 90
2020-03-21 08:00:00 4.9 5 Norte 14 Noroeste 0 -- -- 93
2020-03-21 07:00:00 4.8 4 Noroeste 14 Noroeste 0 -- -- 95
2020-03-21 06:00:00 5.1 6 Noroeste 10 Noroeste 0 -- -- 95
2020-03-21 05:00:00 5.2 0 Calma 3 Sur 0 -- -- 96
2020-03-21 04:00:00 5.8 0 Calma 2 Nordeste 0 -- -- 94
2020-03-21 03:00:00 6.8 0 Calma 3 Sur 0 -- -- 93
2020-03-21 02:00:00 8.1 0 Calma 9 Sur 0 -- -- 91
2020-03-21 01:00:00 8.4 2 Sur 8 Sur 0 -- -- 91
2020-03-21 00:00:00 8.5 4 Sur 15 Sur 0 -- -- 90
2020-03-20 23:00:00 8.6 9 Sur 20 Sur 0 -- -- 91
2020-03-20 22:00:00 8.9 7 Sur 15 Sur 0 -- -- 90
2020-03-20 21:00:00 9.1 8 Sur 20 Sur 0 -- -- 89
2020-03-20 20:00:00 9.3 7 Sur 13 Sur 0 -- -- 89
2020-03-20 19:00:00 9.4 9 Sur 19 Sur 0 -- -- 86
2020-03-20 18:00:00 10.1 11 Sur 19 Sur 0 -- -- 84
2020-03-20 17:00:00 10.4 5 Sur 14 Sur 0 -- -- 82
2020-03-20 16:00:00 10.4 7 Sur 24 Sur 0 -- -- 84
2020-03-20 15:00:00 10.9 8 Sur 24 Sur 0 -- -- 80
2020-03-20 14:00:00 11.5 15 Sur 30 Sur 0 -- -- 73
2020-03-20 13:00:00 11.6 14 Sur 26 Sur 0 -- -- 70
2020-03-20 12:00:00 12.1 14 Sur 26 Sur 0 -- -- 64
2020-03-20 11:00:00 10.7 3 Noroeste 7 Noroeste 0 -- -- 72
2020-03-20 10:00:00 8.9 0 Calma 5 Sur 0 -- -- 83
2020-03-20 09:00:00 7.7 0 Calma 3 Sur 0 -- -- 93
2020-03-20 08:00:00 7 0 Calma 4 Sudeste 0 -- -- 95
2020-03-20 07:00:00 6.9 3 Sudeste 5 Sur 0 -- -- 95
2020-03-20 06:00:00 7.1 2 Sudoeste 5 Sudoeste 0 -- -- 94
2020-03-20 05:00:00 7.4 2 Sur 5 Sur 0 -- -- 95
2020-03-20 04:00:00 7.5 2 Sur 6 Sudeste 0 -- -- 94
2020-03-20 03:00:00 7.6 0 Calma 6 Este 0 -- -- 94
2020-03-20 02:00:00 7.7 2 Sur 8 Sur 0 -- -- 93
2020-03-20 01:00:00 8.2 6 Sur 15 Sur 0 -- -- 91
2020-03-20 00:00:00 8.8 6 Sur 13 Sur 0 -- -- 90
2020-03-19 23:00:00 9 5 Sur 12 Sudoeste 0 -- -- 91
2020-03-19 22:00:00 9.1 7 Sur 12 Sur 0 -- -- 90
2020-03-19 21:00:00 9.3 6 Sur 12 Sudoeste 0 -- -- 90
2020-03-19 20:00:00 9.8 4 Sur 21 Sudoeste 0 -- -- 89
2020-03-19 19:00:00 10.6 10 Sur 21 Sur 0 -- -- 83
2020-03-19 18:00:00 12.1 14 Sur 28 Sur 0 -- -- 76
2020-03-19 17:00:00 13.2 18 Sur 30 Sudoeste 0 -- -- 67
2020-03-19 16:00:00 14.3 15 Sur 27 Sur 0 -- -- 59
2020-03-19 15:00:00 14.6 16 Sur 29 Sur 0 -- -- 57
2020-03-19 14:00:00 14.8 11 Sur 30 Sur 0 -- -- 56
2020-03-19 13:00:00 14.2 13 Sur 28 Sur 0 -- -- 55
2020-03-19 12:00:00 13.8 9 Sur 18 Sur 0 -- -- 60
2020-03-19 11:00:00 10.2 2 Noroeste 6 Noroeste 0 -- -- 71
2020-03-19 10:00:00 7.6 0 Calma 6 Noroeste 0 -- -- 79
2020-03-19 09:00:00 5.5 3 Noroeste 10 Noroeste 0 -- -- 89
2020-03-19 08:00:00 4.7 7 Noroeste 11 Noroeste 0 -- -- 93
2020-03-19 07:00:00 5 6 Noroeste 13 Noroeste 0 -- -- 94
2020-03-19 06:00:00 5.3 4 Noroeste 10 Norte 0 -- -- 94
2020-03-19 05:00:00 5.8 5 Noroeste 10 Norte 0 -- -- 94
2020-03-19 04:00:00 6.2 3 Noroeste 9 Noroeste 0 -- -- 94
2020-03-19 03:00:00 6.6 4 Norte 9 Noroeste 0 -- -- 93
2020-03-19 02:00:00 6.9 4 Noroeste 11 Noroeste 0 -- -- 93
2020-03-19 01:00:00 7.2 4 Noroeste 8 Noroeste 0 -- -- 94
2020-03-19 00:00:00 7.5 0 Calma 5 Oeste 0 -- -- 95
2020-03-18 23:00:00 7.9 2 Noroeste 4 Noroeste 0 -- -- 93
2020-03-18 22:00:00 8.5 2 Noroeste 6 Noroeste 0 -- -- 92
2020-03-18 21:00:00 9.1 0 Calma 5 Este 0 -- -- 91
2020-03-18 20:00:00 10.3 0 Calma 12 Sudoeste 0 -- -- 85
2020-03-18 19:00:00 11.8 2 Oeste 20 Sudoeste 0 -- -- 77
2020-03-18 18:00:00 13.2 14 Sur 23 Sur 0 -- -- 65
2020-03-18 17:00:00 13.8 14 Sur 24 Sur 0 -- -- 60
2020-03-18 16:00:00 13.6 15 Sur 27 Sur 0 -- -- 59
2020-03-18 15:00:00 13.5 14 Sur 27 Sur 0 -- -- 65
2020-03-18 14:00:00 13.5 13 Sur 27 Sudoeste 0 -- -- 65
2020-03-18 13:00:00 13.1 10 Sur 18 Sur 0.2 -- -- 71
2020-03-18 12:00:00 12.5 11 Sur 17 Sur 0 -- -- 72
2020-03-18 11:00:00 10.6 0 Calma 5 Noroeste 0 -- -- 82
2020-03-18 10:00:00 8.7 4 Noroeste 10 Noroeste 0 -- -- 87
2020-03-18 09:00:00 7.2 4 Noroeste 10 Noroeste 0 -- -- 93
2020-03-18 08:00:00 6.7 4 Noroeste 9 Noroeste 0 -- -- 95
2020-03-18 07:00:00 6.7 3 Oeste 6 Noroeste 0 -- -- 96
2020-03-18 06:00:00 6.9 3 Noroeste 9 Norte 0 -- -- 96
2020-03-18 05:00:00 7.1 2 Noroeste 8 Norte 0 -- -- 96
2020-03-18 04:00:00 7.2 3 Noroeste 6 Noroeste 0 -- -- 97
2020-03-18 03:00:00 7.5 3 Noroeste 6 Noroeste 0 -- -- 97
2020-03-18 02:00:00 7.7 3 Noroeste 5 Noroeste 0 -- -- 97
2020-03-18 01:00:00 8 3 Noroeste 6 Noroeste 0 -- -- 97
2020-03-18 00:00:00 8.2 0 Calma 4 Noroeste 0 -- -- 97
2020-03-17 23:00:00 8.7 0 Calma 4 Sur 0 -- -- 96
2020-03-17 22:00:00 9.3 3 Sur 12 Sur 0 -- -- 94
2020-03-17 21:00:00 10.5 7 Sur 15 Sur 0 -- -- 89
2020-03-17 20:00:00 11 7 Sur 18 Sur 0 -- -- 87
2020-03-17 19:00:00 11.7 9 Sur 18 Sur 0 -- -- 86
2020-03-17 18:00:00 11.9 9 Sur 25 Sudoeste 0 -- -- 88
2020-03-17 17:00:00 12.2 13 Sur 24 Sur 0 -- -- 87
2020-03-17 16:00:00 12.1 8 Sur 24 Sur 0 -- -- 90
2020-03-17 15:00:00 11.8 10 Sur 34 Sur 0 -- -- 94
2020-03-17 14:00:00 11.5 9 Sur 25 Sur 1 -- -- 98
2020-03-17 13:00:00 11.1 6 Sur 12 Sur 4.8 -- -- 99
2020-03-17 12:00:00 10.9 0 Calma 15 Sur 7.6 -- -- 99
2020-03-17 11:00:00 11 11 Sur 24 Sur 8.4 -- -- 99
2020-03-17 10:00:00 11 9 Sur 26 Sudoeste 4 -- -- 99
2020-03-17 09:00:00 10.7 8 Sur 22 Sur 7 -- -- 99
2020-03-17 08:00:00 9.9 6 Sur 14 Sur 2.2 -- -- 99
2020-03-17 07:00:00 9.6 2 Nordeste 8 Sur 2.2 -- -- 98
2020-03-17 06:00:00 9.6 4 Sudeste 13 Sur 3 -- -- 98
2020-03-17 05:00:00 9.9 6 Sur 18 Sur 3.8 -- -- 98
2020-03-17 04:00:00 10.3 3 Sur 17 Sudeste 1.4 -- -- 98
2020-03-17 03:00:00 10.4 3 Sudeste 10 Oeste 3.6 -- -- 98
2020-03-17 02:00:00 10.7 3 Sur 12 Sudoeste 2.4 -- -- 99
2020-03-17 01:00:00 10.6 4 Sur 18 Sur 1.8 -- -- 99
2020-03-17 00:00:00 9 5 Sur 12 Oeste 1 -- -- 99
2020-03-16 23:00:00 6.9 0 Calma 4 Oeste 0.4 -- -- 97
2020-03-16 22:00:00 6.6 2 Noroeste 9 Noroeste 0.6 -- -- 95
2020-03-16 21:00:00 6.5 3 Noroeste 7 Noroeste 0.2 -- -- 95
2020-03-16 20:00:00 6.3 4 Noroeste 13 Noroeste 0 -- -- 93
2020-03-16 19:00:00 6.3 8 Noroeste 14 Noroeste 0 -- -- 90
2020-03-16 18:00:00 6.4 3 Noroeste 19 Oeste 0 -- -- 90
2020-03-16 17:00:00 6.3 12 Noroeste 27 Norte 1.2 -- -- 91
2020-03-16 16:00:00 6.6 10 Noroeste 35 Noroeste 1.6 -- -- 95
2020-03-16 15:00:00 7.9 18 Noroeste 31 Noroeste 0.2 -- -- 94
2020-03-16 14:00:00 9.3 11 Sur 21 Sudoeste 0.6 -- -- 98
2020-03-16 13:00:00 8.9 4 Sur 16 Sudoeste 5.2 -- -- 98
2020-03-16 12:00:00 8.5 5 Sur 24 Sur 1 -- -- 98
2020-03-16 11:00:00 8.7 14 Sur 28 Sur 0.2 -- -- 97
2020-03-16 10:00:00 8.9 14 Sur 27 Sur 1 -- -- 98
2020-03-16 09:00:00 8.9 6 Sur 21 Sur 0.8 -- -- 98
2020-03-16 08:00:00 8.7 8 Sur 20 Sur 0 -- -- 97
2020-03-16 07:00:00 8.8 10 Sur 18 Sur 1.6 -- -- 97
2020-03-16 06:00:00 8.9 5 Sur 14 Sur 2 -- -- 97
2020-03-16 05:00:00 8.8 0 Calma 7 Sur 2.6 -- -- 96
2020-03-16 04:00:00 8.8 0 Calma 8 Oeste 0.2 -- -- 94
2020-03-16 03:00:00 9.1 2 Sur 6 Sudoeste 0.2 -- -- 93
2020-03-16 02:00:00 9.4 3 Sur 8 Sudoeste 0.4 -- -- 91
2020-03-16 01:00:00 9.7 3 Sur 7 Sudeste 0 -- -- 88
2020-03-16 00:00:00 9.9 8 Sur 13 Sudoeste 0 -- -- 87
2020-03-15 23:00:00 10.1 8 Sur 13 Sur 0.2 -- -- 88
2020-03-15 22:00:00 10.7 3 Sudeste 10 Sur 0 -- -- 84
2020-03-15 21:00:00 10.8 6 Sudoeste 15 Sur 0 -- -- 88
2020-03-15 20:00:00 11.2 7 Sur 19 Sur 0 -- -- 87
2020-03-15 19:00:00 11.8 10 Sur 24 Sur 0 -- -- 84
2020-03-15 18:00:00 12.6 14 Sur 28 Sudoeste 0 -- -- 77
2020-03-15 17:00:00 13.7 12 Sur 30 Sudoeste 0 -- -- 72
2020-03-15 16:00:00 15 14 Sur 31 Sur 0 -- -- 73
2020-03-15 15:00:00 17 14 Sur 29 Sur 0 -- -- 64
2020-03-15 14:00:00 17.4 12 Sur 29 Sur 0 -- -- 59
2020-03-15 13:00:00 16.7 10 Sur 26 Sur 0 -- -- 63
2020-03-15 12:00:00 15.8 14 Sur 28 Sur 0 -- -- 63
2020-03-15 11:00:00 12.7 6 Sudoeste 17 Sudoeste 0 -- -- 73
2020-03-15 10:00:00 9.7 0 Calma 5 Noroeste 0 -- -- 81
2020-03-15 09:00:00 7.6 4 Noroeste 9 Noroeste 0 -- -- 87
2020-03-15 08:00:00 6.7 4 Noroeste 8 Norte 0 -- -- 92
2020-03-15 07:00:00 6.7 3 Noroeste 8 Oeste 0 -- -- 92
2020-03-15 06:00:00 6.7 3 Oeste 9 Noroeste 0 -- -- 92
2020-03-15 05:00:00 7.1 3 Noroeste 8 Oeste 0 -- -- 92
2020-03-15 04:00:00 7.5 4 Oeste 7 Oeste 0 -- -- 91
2020-03-15 03:00:00 8.1 3 Noroeste 10 Norte 0 -- -- 91
2020-03-15 02:00:00 8.4 4 Noroeste 6 Noroeste 0 -- -- 90
2020-03-15 01:00:00 8.8 0 Calma 5 Oeste 0 -- -- 90
2020-03-15 00:00:00 9.1 0 Calma 4 Noroeste 0 -- -- 90
2020-03-14 23:00:00 9.6 0 Calma 3 Noroeste 0 -- -- 89
2020-03-14 22:00:00 10.3 0 Calma 5 Norte 0 -- -- 86
2020-03-14 21:00:00 11 2 Norte 4 Norte 0 -- -- 83
2020-03-14 20:00:00 12.1 0 Calma 14 Sudoeste 0 -- -- 79
2020-03-14 19:00:00 13.2 10 Sur 18 Sur 0 -- -- 73
2020-03-14 18:00:00 14.7 11 Sur 26 Sur 0 -- -- 69
2020-03-14 17:00:00 15.6 16 Sur 28 Sudoeste 0 -- -- 66
2020-03-14 16:00:00 15.8 15 Sur 28 Sur 0 -- -- 64
2020-03-14 15:00:00 18.1 15 Sur 29 Sudoeste 0 -- -- 55
2020-03-14 14:00:00 18.8 13 Sur 32 Sur 0 -- -- 54
2020-03-14 13:00:00 18 15 Sur 26 Sur 0 -- -- 58
2020-03-14 12:00:00 17.3 8 Sur 20 Sudoeste 0 -- -- 60
2020-03-14 11:00:00 13.3 2 Noroeste 9 Sudoeste 0 -- -- 69
2020-03-14 10:00:00 10.9 0 Calma 9 Noroeste 0 -- -- 76
2020-03-14 09:00:00 8.3 4 Norte 9 Noroeste 0 -- -- 87
2020-03-14 08:00:00 8 5 Noroeste 14 Norte 0 -- -- 91
2020-03-14 07:00:00 8.3 7 Noroeste 13 Noroeste 0 -- -- 92
2020-03-14 06:00:00 7.3 0 Calma 5 Noroeste 0 -- -- 94
2020-03-14 05:00:00 7.3 2 Noroeste 5 Noroeste 0 -- -- 93
2020-03-14 04:00:00 7.6 0 Calma 5 Oeste 0 -- -- 92
2020-03-14 03:00:00 8 2 Noroeste 6 Oeste 0 -- -- 92
2020-03-14 02:00:00 8.4 2 Noroeste 3 Norte 0 -- -- 92
2020-03-14 01:00:00 8.5 0 Calma 2 Norte 0 -- -- 90
2020-03-14 00:00:00 9.1 2 Sur 4 Norte 0 -- -- 88
2020-03-13 23:00:00 9.9 2 Nordeste 5 Nordeste 0 -- -- 85
2020-03-13 22:00:00 11.1 3 Este 5 Oeste 0 -- -- 79
2020-03-13 21:00:00 11.8 3 Sur 13 Sur 0 -- -- 77
2020-03-13 20:00:00 11.8 8 Sur 19 Sur 0 -- -- 77
2020-03-13 19:00:00 12.5 12 Sur 24 Sudoeste 0 -- -- 73
2020-03-13 18:00:00 13.7 17 Sur 27 Sur 0 -- -- 71
2020-03-13 17:00:00 14.6 14 Sur 27 Sudoeste 0 -- -- 66
2020-03-13 16:00:00 15.5 18 Sur 35 Sudoeste 0 -- -- 63
2020-03-13 15:00:00 16.3 12 Sur 30 Sur 0 -- -- 59
2020-03-13 14:00:00 16 9 Sur 37 Sur 0 -- -- 59
2020-03-13 13:00:00 16 15 Sur 33 Sur 0 -- -- 56
2020-03-13 12:00:00 15.2 15 Sur 30 Sur 0 -- -- 55
2020-03-13 11:00:00 13.5 17 Sur 28 Sur 0 -- -- 64
2020-03-13 10:00:00 10.7 0 Calma 4 Noroeste 0 -- -- 77
2020-03-13 09:00:00 8.4 2 Noroeste 9 Norte 0 -- -- 86
2020-03-13 08:00:00 7.8 3 Noroeste 6 Norte 0 -- -- 89
2020-03-13 07:00:00 8.1 3 Noroeste 6 Oeste 0 -- -- 88
2020-03-13 06:00:00 8.7 3 Noroeste 8 Oeste 0 -- -- 87
2020-03-13 05:00:00 9.3 2 Noroeste 6 Noroeste 0 -- -- 85
2020-03-13 04:00:00 9.8 4 Noroeste 6 Noroeste 0 -- -- 85
2020-03-13 03:00:00 10.3 0 Calma 4 Oeste 0 -- -- 85
2020-03-13 02:00:00 11 0 Calma 3 Noroeste 0 -- -- 86
2020-03-13 01:00:00 11.3 0 Calma 3 Noroeste 0 -- -- 85
2020-03-13 00:00:00 12 0 Calma 3 Norte 0 -- -- 85
2020-03-12 23:00:00 12.8 0 Calma 3 Norte 0 -- -- 82
2020-03-12 22:00:00 13.7 3 Norte 6 Norte 0 -- -- 78
2020-03-12 21:00:00 15.4 0 Calma 5 Este 0 -- -- 73
2020-03-12 20:00:00 17.1 2 Sur 12 Sur 0 -- -- 67
2020-03-12 19:00:00 18.9 2 Sudeste 17 Sur 0 -- -- 61
2020-03-12 18:00:00 20.8 12 Sur 23 Sur 0 -- -- 56
2020-03-12 17:00:00 23.6 13 Sur 23 Sur 0 -- -- 48
2020-03-12 16:00:00 25.4 13 Sur 23 Sur 0 -- -- 41
2020-03-12 15:00:00 26.1 10 Sur 23 Sudoeste 0 -- -- 38
2020-03-12 14:00:00 26.4 9 Sur 24 Sudoeste 0 -- -- 38
2020-03-12 13:00:00 25 15 Sur 22 Sur 0 -- -- 38
2020-03-12 12:00:00 20.9 2 Noroeste 4 Nordeste 0 -- -- 46
2020-03-12 11:00:00 17.4 0 Calma 5 Norte 0 -- -- 53
2020-03-12 10:00:00 13.7 0 Calma 9 Noroeste 0 -- -- 62
2020-03-12 09:00:00 10.7 3 Noroeste 13 Noroeste 0 -- -- 72
2020-03-12 08:00:00 9.4 5 Noroeste 14 Norte 0 -- -- 77
2020-03-12 07:00:00 9.5 7 Noroeste 13 Norte 0 -- -- 77
2020-03-12 06:00:00 10 5 Noroeste 14 Norte 0 -- -- 76
2020-03-12 05:00:00 10.3 8 Noroeste 14 Noroeste 0 -- -- 76
2020-03-12 04:00:00 10.8 4 Noroeste 10 Norte 0 -- -- 75
2020-03-12 03:00:00 11.1 7 Noroeste 14 Noroeste 0 -- -- 75
2020-03-12 02:00:00 11.2 2 Noroeste 5 Nordeste 0 -- -- 75
2020-03-12 01:00:00 11.6 0 Calma 4 Noroeste 0 -- -- 74
2020-03-12 00:00:00 12 2 Norte 3 Norte 0 -- -- 74
2020-03-11 23:00:00 12.5 0 Calma 4 Noroeste 0 -- -- 73
2020-03-11 22:00:00 13.3 0 Calma 4 Norte 0 -- -- 69
2020-03-11 21:00:00 14.4 2 Norte 5 Nordeste 0 -- -- 65
2020-03-11 20:00:00 16.3 0 Calma 9 Sur 0 -- -- 59
2020-03-11 19:00:00 18.2 7 Sur 24 Sur 0 -- -- 52
2020-03-11 18:00:00 20.3 13 Sur 27 Sur 0 -- -- 47
2020-03-11 17:00:00 22.4 15 Sur 31 Sur 0 -- -- 43
2020-03-11 16:00:00 23.6 16 Sur 31 Sudoeste 0 -- -- 41
2020-03-11 15:00:00 24.5 14 Sur 31 Sur 0 -- -- 38
2020-03-11 14:00:00 24.1 18 Sur 35 Sudoeste 0 -- -- 38
2020-03-11 13:00:00 24.9 18 Sur 28 Sur 0 -- -- 32
2020-03-11 12:00:00 24.1 12 Sur 21 Sur 0 -- -- 34
2020-03-11 11:00:00 21.4 5 Sudeste 8 Sudeste 0 -- -- 43
2020-03-11 10:00:00 17.1 0 Calma 4 Norte 0 -- -- 54
2020-03-11 09:00:00 11.8 0 Calma 7 Nordeste 0 -- -- 68
2020-03-11 08:00:00 11.1 0 Calma 7 Norte 0 -- -- 69
2020-03-11 07:00:00 11.4 2 Norte 7 Nordeste 0 -- -- 68
2020-03-11 06:00:00 12 0 Calma 7 Sur 0 -- -- 63
2020-03-11 05:00:00 11.3 2 Noroeste 12 Oeste 0 -- -- 68
2020-03-11 04:00:00 10.6 0 Calma 10 Oeste 0 -- -- 71
2020-03-11 03:00:00 10.4 4 Noroeste 10 Noroeste 0 -- -- 72
2020-03-11 02:00:00 9.8 3 Noroeste 7 Nordeste 0 -- -- 82
2020-03-11 01:00:00 10.3 0 Calma 5 Noroeste 0 -- -- 83
2020-03-11 00:00:00 10.8 2 Norte 4 Norte 0 -- -- 82
2020-03-10 23:00:00 11.3 0 Calma 4 Nordeste 0 -- -- 81
2020-03-10 22:00:00 11.6 0 Calma 4 Sur 0 -- -- 80
2020-03-10 21:00:00 12.4 0 Calma 12 Sur 0 -- -- 77
2020-03-10 20:00:00 13.5 4 Sudoeste 14 Sur 0 -- -- 73
2020-03-10 19:00:00 14.9 8 Sur 17 Sur 0 -- -- 65
2020-03-10 18:00:00 15.7 5 Sur 23 Sudeste 0 -- -- 61
2020-03-10 17:00:00 16.6 9 Sudeste 26 Noroeste 0 -- -- 57
2020-03-10 16:00:00 21.4 15 Noroeste 32 Noroeste 0 -- -- 35
2020-03-10 15:00:00 20.9 21 Noroeste 32 Noroeste 0 -- -- 34
2020-03-10 14:00:00 20.5 17 Noroeste 34 Oeste 0 -- -- 34
2020-03-10 13:00:00 19.7 21 Noroeste 33 Noroeste 0 -- -- 32
2020-03-10 12:00:00 17.7 14 Noroeste 32 Norte 0 -- -- 34
2020-03-10 11:00:00 15.2 21 Noroeste 33 Norte 0 -- -- 39
2020-03-10 10:00:00 13.8 17 Noroeste 34 Norte 0 -- -- 39
2020-03-10 09:00:00 12.5 11 Norte 26 Oeste 0 -- -- 41
2020-03-10 08:00:00 11.1 12 Noroeste 20 Oeste 0 -- -- 44
2020-03-10 07:00:00 9.8 3 Sudoeste 28 Noroeste 0 -- -- 49
2020-03-10 06:00:00 10 11 Noroeste 23 Norte 0 -- -- 53
2020-03-10 05:00:00 9.7 9 Noroeste 35 Noroeste 0 -- -- 55
2020-03-10 04:00:00 10.1 18 Noroeste 41 Norte 0 -- -- 54
2020-03-10 03:00:00 9.8 20 Noroeste 48 Noroeste 0 -- -- 54
2020-03-10 02:00:00 10.3 26 Noroeste 44 Noroeste 0 -- -- 51
2020-03-10 01:00:00 10.3 33 Noroeste 51 Noroeste 0 -- -- 52
2020-03-10 00:00:00 10.8 32 Noroeste 44 Noroeste 0 -- -- 52
2020-03-09 23:00:00 11.3 25 Noroeste 46 Norte 0 -- -- 51
2020-03-09 22:00:00 12 19 Noroeste 35 Noroeste 0 -- -- 48
2020-03-09 21:00:00 12.5 12 Noroeste 31 Noroeste 0 -- -- 47
2020-03-09 20:00:00 13.5 22 Noroeste 37 Noroeste 0 -- -- 43
2020-03-09 19:00:00 14.4 22 Norte 46 Noroeste 0 -- -- 41
2020-03-09 18:00:00 15.7 26 Noroeste 41 Noroeste 0 -- -- 39
2020-03-09 17:00:00 15.9 21 Noroeste 54 Noroeste 0 -- -- 40
2020-03-09 16:00:00 16.2 25 Noroeste 51 Noroeste 0 -- -- 36
2020-03-09 15:00:00 15.7 26 Noroeste 48 Noroeste 0 -- -- 38
2020-03-09 14:00:00 15.1 26 Noroeste 47 Noroeste 0 -- -- 41
2020-03-09 13:00:00 14.4 21 Noroeste 43 Noroeste 0 -- -- 40
2020-03-09 12:00:00 13.4 29 Noroeste 53 Noroeste 0 -- -- 42
2020-03-09 11:00:00 12.7 25 Noroeste 42 Noroeste 0 -- -- 43
2020-03-09 10:00:00 12 24 Noroeste 44 Noroeste 0 -- -- 51
2020-03-09 09:00:00 10.8 15 Noroeste 28 Noroeste 0 -- -- 59
2020-03-09 08:00:00 10.7 14 Noroeste 32 Noroeste 0 -- -- 60
2020-03-09 07:00:00 11.1 13 Noroeste 31 Noroeste 0 -- -- 57
2020-03-09 06:00:00 10.9 8 Noroeste 30 Norte 0 -- -- 60
2020-03-09 05:00:00 11.4 19 Noroeste 35 Noroeste 0 -- -- 61
2020-03-09 04:00:00 12.1 23 Noroeste 44 Oeste 0 -- -- 58
2020-03-09 03:00:00 12.2 8 Noroeste 34 Oeste 0 -- -- 55
2020-03-09 02:00:00 12.8 18 Noroeste 50 Norte 0 -- -- 51
2020-03-09 01:00:00 13.5 18 Noroeste 33 Norte 0 -- -- 46
2020-03-09 00:00:00 12.4 13 Noroeste 20 Noroeste 0 -- -- 50
2020-03-08 23:00:00 10.1 0 Calma 5 Norte 0 -- -- 64
2020-03-08 22:00:00 11.1 3 Norte 6 Norte 0 -- -- 61
2020-03-08 21:00:00 12.4 0 Calma 6 Este 0 -- -- 58
2020-03-08 20:00:00 13.4 2 Sudeste 10 Sudeste 0 -- -- 50
2020-03-08 19:00:00 14.2 7 Sur 24 Sudoeste 0 -- -- 49
2020-03-08 18:00:00 15.8 15 Sur 27 Sur 0 -- -- 44
2020-03-08 17:00:00 19.8 15 Noroeste 32 Oeste 0 -- -- 22
2020-03-08 16:00:00 20.7 10 Noroeste 30 Oeste 0 -- -- 23
2020-03-08 15:00:00 19.7 22 Noroeste 36 Oeste 0 -- -- 17
2020-03-08 14:00:00 19.7 15 Noroeste 28 Oeste 0 -- -- 23
2020-03-08 13:00:00 18.4 14 Noroeste 24 Noroeste 0 -- -- 25
2020-03-08 12:00:00 17.8 4 Oeste 11 Norte 0 -- -- 27
2020-03-08 11:00:00 15.2 3 Noroeste 19 Noroeste 0 -- -- 35
2020-03-08 10:00:00 11.7 0 Calma 15 Norte 0 -- -- 49
2020-03-08 09:00:00 8.4 8 Norte 17 Noroeste 0 -- -- 64
2020-03-08 08:00:00 6.6 3 Noroeste 20 Norte 0 -- -- 72
2020-03-08 07:00:00 6 7 Noroeste 12 Noroeste 0 -- -- 78
2020-03-08 06:00:00 5.9 4 Noroeste 12 Noroeste 0 -- -- 79
2020-03-08 05:00:00 6.5 2 Norte 12 Noroeste 0 -- -- 77
2020-03-08 04:00:00 8.2 9 Noroeste 13 Noroeste 0 -- -- 69
2020-03-08 03:00:00 9.3 6 Noroeste 26 Norte 0 -- -- 66
2020-03-08 02:00:00 9.7 9 Noroeste 22 Noroeste 0 -- -- 63
2020-03-08 01:00:00 10.2 9 Norte 20 Norte 0 -- -- 62
2020-03-08 00:00:00 10 5 Noroeste 24 Oeste 0 -- -- 64
2020-03-07 23:00:00 10.3 0 Calma 18 Norte 0 -- -- 60
2020-03-07 22:00:00 10.7 8 Noroeste 12 Noroeste 0 -- -- 60
2020-03-07 21:00:00 11.6 10 Noroeste 15 Norte 0 -- -- 58
2020-03-07 20:00:00 12.4 11 Noroeste 22 Noroeste 0 -- -- 53
2020-03-07 19:00:00 12.9 0 Calma 26 Noroeste 0 -- -- 50
2020-03-07 18:00:00 14.4 21 Noroeste 45 Noroeste 0 -- -- 47
2020-03-07 17:00:00 14.9 23 Noroeste 48 Noroeste 0 -- -- 43
2020-03-07 16:00:00 14.8 21 Noroeste 62 Noroeste 0 -- -- 42
2020-03-07 15:00:00 14.2 30 Noroeste 60 Noroeste 0 -- -- 46
2020-03-07 14:00:00 13.6 24 Noroeste 58 Noroeste 0 -- -- 46
2020-03-07 13:00:00 11.9 35 Noroeste 74 Noroeste 0 -- -- 51
2020-03-07 12:00:00 10.4 35 Noroeste 55 Noroeste 0 -- -- 55
2020-03-07 11:00:00 8.6 27 Noroeste 39 Noroeste 0 -- -- 61
2020-03-07 10:00:00 7.3 24 Noroeste 40 Noroeste 0 -- -- 60
2020-03-07 09:00:00 7.1 24 Noroeste 35 Noroeste 0 -- -- 57
2020-03-07 08:00:00 6.9 18 Noroeste 35 Oeste 0 -- -- 58
2020-03-07 07:00:00 6.7 14 Noroeste 35 Noroeste 0 -- -- 58
2020-03-07 06:00:00 7 22 Noroeste 50 Norte 0 -- -- 58
2020-03-07 05:00:00 6.6 24 Noroeste 50 Noroeste 0 -- -- 61
2020-03-07 04:00:00 6.8 32 Noroeste 55 Noroeste 0 -- -- 59
2020-03-07 03:00:00 6.6 24 Noroeste 44 Norte 0 -- -- 56
2020-03-07 02:00:00 6.6 16 Noroeste 35 Noroeste 0 -- -- 52
2020-03-07 01:00:00 6.6 15 Noroeste 37 Noroeste 0 -- -- 55
2020-03-07 00:00:00 7.1 21 Noroeste 55 Noroeste 0 -- -- 51
2020-03-06 23:00:00 7.6 23 Noroeste 58 Noroeste 0 -- -- 49
2020-03-06 22:00:00 8.2 32 Noroeste 75 Norte 0 -- -- 46
2020-03-06 21:00:00 8.5 21 Noroeste 52 Noroeste 0 -- -- 47
2020-03-06 20:00:00 8.7 17 Noroeste 51 Noroeste 0 -- -- 46
2020-03-06 19:00:00 9.3 24 Norte 62 Noroeste 0 -- -- 43
2020-03-06 18:00:00 8.9 19 Noroeste 58 Noroeste 0 -- -- 51
2020-03-06 17:00:00 10.2 26 Noroeste 57 Noroeste 0.2 -- -- 46
2020-03-06 16:00:00 8.9 27 Noroeste 59 Oeste 0 -- -- 51
2020-03-06 15:00:00 6.9 23 Noroeste 75 Noroeste 0 -- -- 68
2020-03-06 14:00:00 11.1 41 Noroeste 71 Noroeste 0 -- -- 43
2020-03-06 13:00:00 10.4 43 Noroeste 76 Noroeste 0 -- -- 44
2020-03-06 12:00:00 10.9 47 Noroeste 74 Norte 0 -- -- 40
2020-03-06 11:00:00 10.4 33 Noroeste 66 Noroeste 0 -- -- 44
2020-03-06 10:00:00 10 27 Noroeste 48 Norte 0 -- -- 49
2020-03-06 09:00:00 9.3 20 Noroeste 41 Noroeste 0 -- -- 54
2020-03-06 08:00:00 8.7 25 Noroeste 44 Oeste 0 -- -- 55
2020-03-06 07:00:00 8.7 23 Noroeste 41 Noroeste 0 -- -- 56
2020-03-06 06:00:00 9.2 23 Noroeste 43 Noroeste 0 -- -- 55
2020-03-06 05:00:00 9.3 12 Noroeste 28 Norte 0 -- -- 58
2020-03-06 04:00:00 9.7 15 Noroeste 30 Oeste 0 -- -- 57
2020-03-06 03:00:00 10 15 Noroeste 31 Noroeste 0 -- -- 57
2020-03-06 02:00:00 10.3 13 Noroeste 37 Noroeste 0 -- -- 58
2020-03-06 01:00:00 10.7 16 Noroeste 46 Noroeste 0 -- -- 59
2020-03-06 00:00:00 11.7 21 Noroeste 44 Noroeste 0 -- -- 56
2020-03-05 23:00:00 12.4 12 Noroeste 31 Oeste 0 -- -- 49
2020-03-05 22:00:00 12.8 16 Noroeste 44 Noroeste 0 -- -- 48
2020-03-05 21:00:00 13.2 21 Noroeste 42 Oeste 0 -- -- 46
2020-03-05 20:00:00 13.9 18 Noroeste 42 Noroeste 0 -- -- 46
2020-03-05 19:00:00 14.8 19 Noroeste 50 Noroeste 0 -- -- 42
2020-03-05 18:00:00 15.7 24 Noroeste 76 Norte 0 -- -- 39
2020-03-05 17:00:00 16.2 30 Noroeste 63 Noroeste 0 -- -- 39
2020-03-05 16:00:00 15.2 28 Noroeste 68 Noroeste 0 -- -- 59
2020-03-05 15:00:00 17.7 30 Noroeste 59 Noroeste 0 -- -- 49
2020-03-05 14:00:00 17.5 32 Noroeste 51 Noroeste 0 -- -- 49
2020-03-05 13:00:00 16.8 26 Noroeste 48 Noroeste 0 -- -- 53
2020-03-05 12:00:00 16.2 24 Noroeste 55 Noroeste 0 -- -- 53
2020-03-05 11:00:00 15.6 10 Norte 42 Noroeste 0 -- -- 56
2020-03-05 10:00:00 12.6 5 Noroeste 12 Norte 0 -- -- 67
2020-03-05 09:00:00 11.4 3 Sudeste 6 Norte 0 -- -- 69
2020-03-05 08:00:00 11.9 5 Norte 16 Noroeste 0 -- -- 67
2020-03-05 07:00:00 12.5 5 Noroeste 28 Noroeste 0 -- -- 63
2020-03-05 06:00:00 12.8 14 Noroeste 26 Noroeste 0 -- -- 61
2020-03-05 05:00:00 10.5 2 Sudeste 9 Norte 0 -- -- 72
2020-03-05 04:00:00 10.1 3 Norte 7 Norte 0 -- -- 74
2020-03-05 03:00:00 10.9 0 Calma 5 Noroeste 0 -- -- 70
2020-03-05 02:00:00 12.2 0 Calma 17 Norte 0 -- -- 66
2020-03-05 01:00:00 13 2 Norte 9 Norte 0 -- -- 63
2020-03-05 00:00:00 13.9 3 Noroeste 20 Noroeste 0 -- -- 59
2020-03-04 23:00:00 14.3 6 Norte 19 Oeste 0 -- -- 59
2020-03-04 22:00:00 14.9 10 Noroeste 25 Noroeste 0 -- -- 56
2020-03-04 21:00:00 15.9 15 Noroeste 33 Oeste 0 -- -- 53
2020-03-04 20:00:00 17.2 11 Noroeste 21 Noroeste 0 -- -- 49
2020-03-04 19:00:00 17.9 7 Noroeste 22 Noroeste 0 -- -- 47
2020-03-04 18:00:00 19.5 12 Noroeste 29 Noroeste 0 -- -- 42
2020-03-04 17:00:00 19.5 18 Noroeste 31 Noroeste 0 -- -- 43
2020-03-04 16:00:00 19.9 17 Noroeste 38 Noroeste 0 -- -- 42
2020-03-04 15:00:00 19.8 17 Noroeste 32 Noroeste 0 -- -- 44
2020-03-04 14:00:00 20 14 Noroeste 49 Noroeste 0 -- -- 45
2020-03-04 13:00:00 18.9 27 Noroeste 41 Norte 0 -- -- 48
2020-03-04 12:00:00 17.8 16 Noroeste 31 Noroeste 0 -- -- 55
2020-03-04 11:00:00 16.3 18 Noroeste 49 Noroeste 0 -- -- 59
2020-03-04 10:00:00 15.3 22 Norte 40 Noroeste 0 -- -- 63
2020-03-04 09:00:00 14 11 Norte 22 Norte 0 -- -- 66
2020-03-04 08:00:00 12.4 3 Noroeste 12 Norte 0 -- -- 71
2020-03-04 07:00:00 12.6 9 Norte 21 Oeste 0 -- -- 70
2020-03-04 06:00:00 13.7 6 Noroeste 19 Noroeste 0 -- -- 60
2020-03-04 05:00:00 14 16 Noroeste 43 Norte 0 -- -- 56
2020-03-04 04:00:00 14 23 Noroeste 43 Noroeste 0 -- -- 56
2020-03-04 03:00:00 14.4 25 Noroeste 44 Noroeste 0 -- -- 56
2020-03-04 02:00:00 14.4 27 Noroeste 51 Norte 0 -- -- 57
2020-03-04 01:00:00 14.5 30 Noroeste 55 Norte 0 -- -- 55
2020-03-04 00:00:00 14.5 23 Noroeste 48 Noroeste 0 -- -- 56